Ottumwa Regional Airport
Tuesday 10:53 AM
Weather Sunny
Temperature 71°
Dew Point 61°
Feels Like
Relative Humidity 70
%
Visibility 10
mi
Pressure 1014.2
mb
Wind Direction E
Wind Speed 8
mph
Last Hour Precip 0.00
"
KOTM 281553Z AUTO 09007KT 10SM CLR 22/16 A2995 RMK AO2 SLP137 T02170161

Terminal Aerodrome Forecast (TAF)

Beginning Flight Rule Present Weather Sky Cover Ceiling Wind Visibility Wind Shear
9/28/21 6:23 AM
VFR
FEW 25000 25000
ft
E (80) 10 >6
sm
2812/2912 08009KT P6SM FEW250

Recent Observations

Time Present Weather Temp DP Feels RH% Vsby Pressure Ceiling Direction Speed Gust 1h Precip
10:53AM
VFR
71° 61° 70
%
10
mi
1014.2
mb
None E 8
mph
0.00"
KOTM 281553Z AUTO 09007KT 10SM CLR 22/16 A2995 RMK AO2 SLP137 T02170161
9:53AM
VFR
65° 59° 81
%
10
mi
1014.2
mb
None E 9
mph
0.00"
KOTM 281453Z AUTO 10008KT 10SM CLR 18/15 A2995 RMK AO2 SLP137 T01830150 51008
8:53AM
VFR
61° 58° 90
%
10
mi
1014.2
mb
None E 10
mph
0.00"
KOTM 281353Z AUTO 09009KT 10SM CLR 16/14 A2995 RMK AO2 SLP137 T01610144
7:53AM
VFR
59° 57° 93
%
10
mi
1013.9
mb
None E 10
mph
0.00"
KOTM 281253Z AUTO 08009KT 10SM CLR 15/14 A2994 RMK AO2 SLP134 T01500139
6:53AM
VFR
59° 57° 93
%
10
mi
1013.2
mb
None E 10
mph
0.00"
KOTM 281153Z AUTO 08009KT 10SM CLR 15/14 A2992 RMK AO2 SLP129 T01500139 10189 20144 53012
5:53AM
VFR
59° 58° 96
%
10
mi
1012.9
mb
None E 10
mph
0.00"
KOTM 281053Z AUTO 08009KT 10SM CLR 15/14 A2991 RMK AO2 SLP123 T01500144
4:53AM
VFR
60° 58° 92
%
10
mi
1012.5
mb
None E 9
mph
0.00"
KOTM 280953Z AUTO 08008KT 10SM CLR 16/14 A2990 RMK AO2 SLP118 T01560144
3:53AM
VFR
62° 58° 86
%
10
mi
1012.2
mb
None E 10
mph
0.00"
KOTM 280853Z AUTO 08009KT 10SM CLR 17/14 A2989 RMK AO2 SLP114 T01670144 53006
2:53AM
VFR
63° 58° 83
%
10
mi
1011.9
mb
None ENE 7
mph
0.00"
KOTM 280753Z AUTO 07006KT 10SM CLR 17/14 A2988 RMK AO2 SLP111 T01720144
1:53AM
VFR
64° 58° 81
%
10
mi
1011.5
mb
None NNE 7
mph
0.00"
KOTM 280653Z AUTO 02006KT 10SM CLR 18/14 A2987 RMK AO2 SLP109 T01780144
12:53AM
VFR
66° 58° 75
%
10
mi
1011.5
mb
None N 3
mph
0.00"
KOTM 280553Z AUTO 35003KT 10SM CLR 19/14 A2987 RMK AO2 SLP108 T01890144 10244 20161 403110161 51004
11:53PM
VFR
62° 57° 83
%
10
mi
1011.5
mb
None Calm 0.00"
KOTM 280453Z AUTO 00000KT 10SM CLR 17/14 A2987 RMK AO2 SLP109 T01670139
10:53PM
VFR
65° 59° 81
%
10
mi
1011.2
mb
None N 3
mph
0.00"
KOTM 280353Z AUTO 35003KT 10SM CLR 18/15 A2986 RMK AO2 SLP107 T01830150
9:53PM
VFR
68° 59° 73
%
10
mi
1011.2
mb
None Calm 0.00"
KOTM 280253Z AUTO 00000KT 10SM CLR 20/15 A2986 RMK AO2 SLP104 T02000150 53012
8:53PM
VFR
67° 59° 76
%
10
mi
1010.8
mb
None SSW 3
mph
0.00"
KOTM 280153Z AUTO 20003KT 10SM CLR 19/15 A2985 RMK AO2 SLP102 T01940150
7:53PM
VFR
72° 60° 66
%
10
mi
1009.8
mb
None Calm 0.00"
KOTM 280053Z AUTO 00000KT 10SM CLR 22/16 A2982 RMK AO2 SLP093 T02220156
6:53PM
VFR
76° 60° 58
%
10
mi
1009.8
mb
None Calm 0.00"
KOTM 272353Z AUTO 00000KT 10SM CLR 24/16 A2982 RMK AO2 SLP091 T02440156 10311 20244 53014
5:53PM
VFR
85° 58° 84° 40
%
10
mi
1008.8
mb
None NW 5
mph
0.00"
KOTM 272253Z AUTO 31004KT 10SM CLR 29/14 A2979 RMK AO2 SLP081 T02940144
4:53PM
VFR
87° 56° 86° 35
%
10
mi
1009.1
mb
None W 8
mph
0.00"
KOTM 272153Z AUTO 27007KT 10SM CLR 31/13 A2980 RMK AO2 SLP082 T03060133
3:53PM
VFR
88° 55° 86° 33
%
10
mi
1008.5
mb
None W 10
mph
0.00"
KOTM 272053Z AUTO 27009KT 10SM CLR 31/13 A2978 RMK AO2 SLP075 T03110128 58007
Click here to show this page without METARs/TAFs included